createdAt,value
2023-01-08T00:01:14.531Z,99247.02
2023-01-08T00:03:50.002Z,99242.79
2023-01-08T00:06:21.432Z,99236.94
2023-01-08T00:08:49.805Z,99230.64
2023-01-08T00:11:18.114Z,99229.80
2023-01-08T00:13:46.569Z,99227.69
2023-01-08T00:16:17.868Z,99226.13
2023-01-08T00:18:47.469Z,99223.92
2023-01-08T00:21:15.833Z,99219.11
2023-01-08T00:23:44.141Z,99217.46
2023-01-08T00:26:13.518Z,99214.10
2023-01-08T00:28:42.567Z,99214.91
2023-01-08T00:31:12.779Z,99210.29
2023-01-08T00:33:41.530Z,99205.30
2023-01-08T00:36:12.916Z,99200.45
2023-01-08T00:38:42.514Z,99198.27
2023-01-08T00:41:13.341Z,99199.92
2023-01-08T00:43:41.731Z,99199.25
2023-01-08T00:46:10.606Z,99193.52
2023-01-08T00:48:39.273Z,99192.38
2023-01-08T00:51:08.978Z,99189.85
2023-01-08T00:53:40.788Z,99191.63
2023-01-08T00:56:10.575Z,99185.05
2023-01-08T00:58:39.234Z,99188.67
2023-01-08T01:01:12.893Z,99186.00
2023-01-08T01:03:42.363Z,99185.78
2023-01-08T01:06:12.759Z,99186.93
2023-01-08T01:08:41.441Z,99185.46
2023-01-08T01:11:17.655Z,99182.98
2023-01-08T01:13:46.105Z,99183.86
2023-01-08T01:16:14.722Z,99188.05
2023-01-08T01:18:43.345Z,99190.33
2023-01-08T01:21:23.433Z,99185.73
2023-01-08T01:23:55.669Z,99180.13
2023-01-08T01:26:25.610Z,99175.56
2023-01-08T01:28:56.179Z,99172.23
2023-01-08T01:31:26.560Z,99166.59
2023-01-08T01:33:55.088Z,99163.43
2023-01-08T01:36:24.931Z,99160.30
2023-01-08T01:38:55.771Z,99160.48
2023-01-08T01:41:28.063Z,99159.23
2023-01-08T01:43:58.691Z,99160.10
2023-01-08T01:46:29.760Z,99155.55
2023-01-08T01:49:01.977Z,99150.05
2023-01-08T01:51:33.879Z,99145.60
2023-01-08T01:54:05.399Z,99145.02
2023-01-08T01:56:34.810Z,99140.98
2023-01-08T01:59:04.345Z,99142.11
2023-01-08T02:01:34.315Z,99133.42
2023-01-08T02:04:02.865Z,99129.96
2023-01-08T02:06:45.978Z,99128.65
2023-01-08T02:09:49.454Z,99121.75
2023-01-08T02:12:31.257Z,99118.14
2023-01-08T02:15:28.661Z,99112.24
2023-01-08T02:18:09.001Z,99109.02
2023-01-08T02:20:51.029Z,99104.23
2023-01-08T02:23:26.211Z,99097.27
2023-01-08T02:25:57.453Z,99094.93
2023-01-08T02:28:26.657Z,99089.45
2023-01-08T02:30:55.609Z,99084.80
2023-01-08T02:33:27.199Z,99080.02
2023-01-08T02:36:18.422Z,99076.99
2023-01-08T02:39:00.214Z,99077.06
2023-01-08T02:42:11.225Z,99076.40
2023-01-08T02:44:55.432Z,99071.83
2023-01-08T02:47:34.022Z,99069.41
2023-01-08T02:50:24.480Z,99066.15
2023-01-08T02:53:07.963Z,99067.23
2023-01-08T02:55:39.321Z,99063.36
2023-01-08T02:58:08.250Z,99058.89
2023-01-08T03:00:38.266Z,99056.38
2023-01-08T03:03:15.973Z,99055.94
2023-01-08T03:05:48.603Z,99056.42
2023-01-08T03:08:19.672Z,99048.70
2023-01-08T03:11:00.780Z,99050.41
2023-01-08T03:13:40.572Z,99046.02
2023-01-08T03:16:16.599Z,99045.63
2023-01-08T03:18:52.372Z,99038.17
2023-01-08T03:21:22.531Z,99037.73
2023-01-08T03:23:51.327Z,99036.94
2023-01-08T03:26:26.287Z,99039.54
2023-01-08T03:28:57.853Z,99039.46
2023-01-08T03:31:29.403Z,99039.20
2023-01-08T03:33:59.588Z,99034.45
2023-01-08T03:36:30.121Z,99029.77
2023-01-08T03:39:10.912Z,99029.98
2023-01-08T03:41:39.654Z,99029.39
2023-01-08T03:44:08.322Z,99033.88
2023-01-08T03:46:44.487Z,99032.79
2023-01-08T03:49:13.884Z,99032.71
2023-01-08T03:51:44.607Z,99030.38
2023-01-08T03:54:16.983Z,99026.63
2023-01-08T03:56:46.440Z,99022.00
2023-01-08T03:59:15.581Z,99026.52
2023-01-08T04:01:44.404Z,99028.94
2023-01-08T04:04:13.128Z,99035.67
2023-01-08T04:06:41.672Z,99041.73
2023-01-08T04:09:10.542Z,99039.69
2023-01-08T04:11:38.840Z,99044.15
2023-01-08T04:14:07.304Z,99035.21
2023-01-08T04:16:35.563Z,99034.80
2023-01-08T04:19:03.894Z,99026.98
2023-01-08T04:21:32.432Z,99027.25
2023-01-08T04:24:00.655Z,99025.42
2023-01-08T04:26:28.961Z,99027.05
2023-01-08T04:28:57.313Z,99033.26
2023-01-08T04:31:25.611Z,99032.42
2023-01-08T04:33:53.851Z,99030.23
2023-01-08T04:36:22.464Z,99022.72
2023-01-08T04:38:50.824Z,99021.37
2023-01-08T04:41:19.251Z,99024.77
2023-01-08T04:43:47.631Z,99030.05
2023-01-08T04:46:15.999Z,99023.57
2023-01-08T04:48:44.320Z,99023.76
2023-01-08T04:51:12.707Z,99019.98
2023-01-08T04:53:41.574Z,99019.02
2023-01-08T04:56:11.910Z,99013.20
2023-01-08T04:58:40.702Z,99008.00
2023-01-08T05:01:26.494Z,99015.12
2023-01-08T05:03:57.301Z,99018.85
2023-01-08T05:06:26.917Z,99025.26
2023-01-08T05:08:55.271Z,99030.24
2023-01-08T05:11:24.188Z,99027.76
2023-01-08T05:13:54.945Z,99025.38
2023-01-08T05:16:23.804Z,99021.66
2023-01-08T05:18:52.119Z,99014.77
2023-01-08T05:21:20.503Z,99010.98
2023-01-08T05:23:48.870Z,99004.09
2023-01-08T05:26:19.400Z,99004.80
2023-01-08T05:28:47.794Z,99005.23
2023-01-08T05:31:16.725Z,99008.64
2023-01-08T05:33:45.202Z,99011.30
2023-01-08T05:36:13.541Z,99018.37
2023-01-08T05:38:41.992Z,99020.58
2023-01-08T05:41:10.676Z,99018.43
2023-01-08T05:43:38.919Z,99017.78
2023-01-08T05:46:07.387Z,99014.61
2023-01-08T05:48:37.451Z,99018.31
2023-01-08T05:51:05.948Z,99020.23
2023-01-08T05:53:34.540Z,99015.79
2023-01-08T05:56:07.166Z,99016.99
2023-01-08T05:58:37.035Z,99013.79
2023-01-08T06:01:08.681Z,99012.65
2023-01-08T06:03:37.912Z,99011.14
2023-01-08T06:06:08.050Z,99005.77
2023-01-08T06:08:36.488Z,99004.69
2023-01-08T06:11:07.869Z,99001.48
2023-01-08T06:13:38.198Z,98996.19
2023-01-08T06:16:06.976Z,98994.19
2023-01-08T06:18:35.918Z,98987.52
2023-01-08T06:21:05.360Z,98987.15
2023-01-08T06:23:33.824Z,98984.67
2023-01-08T06:26:04.360Z,98983.50
2023-01-08T06:28:33.296Z,98981.42
2023-01-08T06:31:01.793Z,98979.80
2023-01-08T06:33:32.195Z,98977.70
2023-01-08T06:36:05.309Z,98981.00
2023-01-08T06:38:35.406Z,98979.80
2023-01-08T06:41:06.418Z,98977.33
2023-01-08T06:43:36.091Z,98975.41
2023-01-08T06:46:06.508Z,98973.43
2023-01-08T06:48:35.547Z,98974.80
2023-01-08T06:51:04.787Z,98974.23
2023-01-08T06:53:33.701Z,98973.45
2023-01-08T06:56:04.102Z,98977.73
2023-01-08T06:58:32.437Z,98978.14
2023-01-08T07:01:00.820Z,98981.27
2023-01-08T07:03:29.175Z,98983.86
2023-01-08T07:05:58.045Z,98988.52
2023-01-08T07:08:26.523Z,98988.01
2023-01-08T07:10:54.830Z,98988.48
2023-01-08T07:13:24.113Z,98987.08
2023-01-08T07:15:52.644Z,98985.84
2023-01-08T07:18:20.936Z,98985.84
2023-01-08T07:20:49.490Z,98982.84
2023-01-08T07:23:17.857Z,98983.02
2023-01-08T07:25:47.554Z,98981.92
2023-01-08T07:28:16.279Z,98980.46
2023-01-08T07:30:44.880Z,98976.33
2023-01-08T07:33:13.205Z,98977.27
2023-01-08T07:35:41.622Z,98974.23
2023-01-08T07:38:10.516Z,98976.45
2023-01-08T07:40:39.592Z,98976.10
2023-01-08T07:43:12.600Z,98975.06
2023-01-08T07:45:41.782Z,98963.20
2023-01-08T07:48:17.741Z,98959.88
2023-01-08T07:50:46.241Z,98962.21
2023-01-08T07:53:17.386Z,98958.80
2023-01-08T07:55:46.222Z,98958.40
2023-01-08T07:58:14.918Z,98952.84
2023-01-08T08:00:43.246Z,98948.14
2023-01-08T08:03:37.840Z,98950.05
2023-01-08T08:06:06.807Z,98940.13
2023-01-08T08:08:36.363Z,98932.88
2023-01-08T08:11:04.828Z,98929.69
2023-01-08T08:13:33.286Z,98921.81
2023-01-08T08:16:05.670Z,98914.66
2023-01-08T08:18:34.096Z,98912.60
2023-01-08T08:21:02.588Z,98909.91
2023-01-08T08:23:32.719Z,98905.77
2023-01-08T08:26:04.518Z,98902.34
2023-01-08T08:28:32.755Z,98900.48
2023-01-08T08:31:01.156Z,98897.40
2023-01-08T08:33:29.483Z,98890.23
2023-01-08T08:35:57.805Z,98884.44
2023-01-08T08:38:26.616Z,98881.13
2023-01-08T08:40:54.964Z,98873.48
2023-01-08T08:43:23.325Z,98868.34
2023-01-08T08:45:51.732Z,98867.07
2023-01-08T08:48:20.010Z,98865.71
2023-01-08T08:50:48.292Z,98859.83
2023-01-08T08:53:16.656Z,98864.27
2023-01-08T08:55:44.924Z,98864.56
2023-01-08T08:58:13.975Z,98862.00
2023-01-08T09:00:43.829Z,98852.61
2023-01-08T09:03:16.019Z,98852.16
2023-01-08T09:06:03.592Z,98849.65
2023-01-08T09:08:31.977Z,98848.65
2023-01-08T09:11:02.585Z,98839.98
2023-01-08T09:13:30.811Z,98829.71
2023-01-08T09:16:00.009Z,98818.05
2023-01-08T09:18:28.485Z,98809.49
2023-01-08T09:20:56.811Z,98805.61
2023-01-08T09:23:25.048Z,98802.19
2023-01-08T09:26:00.301Z,98793.48
2023-01-08T09:28:29.406Z,98792.25
2023-01-08T09:31:01.856Z,98793.28
2023-01-08T09:33:31.513Z,98785.61
2023-01-08T09:35:59.944Z,98779.56
2023-01-08T09:38:29.959Z,98778.82
2023-01-08T09:41:04.489Z,98780.41
2023-01-08T09:43:37.503Z,98774.77
2023-01-08T09:46:07.605Z,98772.18
2023-01-08T09:48:38.443Z,98768.54
2023-01-08T09:51:14.310Z,98768.48
2023-01-08T09:53:44.242Z,98768.17
2023-01-08T09:56:18.303Z,98768.08
2023-01-08T09:58:54.554Z,98765.85
2023-01-08T10:01:28.417Z,98767.27
2023-01-08T10:04:07.954Z,98766.77
2023-01-08T10:06:36.442Z,98758.90
2023-01-08T10:09:07.575Z,98754.41
2023-01-08T10:11:49.196Z,98744.77
2023-01-08T10:14:25.579Z,98735.61
2023-01-08T10:17:24.222Z,98734.80
2023-01-08T10:20:01.163Z,98732.60
2023-01-08T10:22:34.195Z,98729.87
2023-01-08T10:25:10.052Z,98727.94
2023-01-08T10:27:56.045Z,98728.87
2023-01-08T10:30:48.922Z,98727.89
2023-01-08T10:33:41.123Z,98727.75
2023-01-08T10:36:14.959Z,98724.30
2023-01-08T10:39:00.248Z,98720.05
2023-01-08T10:41:36.907Z,98717.52
2023-01-08T10:44:18.073Z,98716.55
2023-01-08T10:46:50.517Z,98713.48
2023-01-08T10:49:36.212Z,98710.66
2023-01-08T10:52:28.521Z,98708.52
2023-01-08T10:55:24.830Z,98703.80
2023-01-08T10:58:18.817Z,98698.41
2023-01-08T11:00:59.199Z,98689.88
2023-01-08T11:03:36.095Z,98682.50
2023-01-08T11:06:21.397Z,98678.40
2023-01-08T11:09:02.057Z,98674.15
2023-01-08T11:11:42.595Z,98673.00
2023-01-08T11:14:40.542Z,98671.52
2023-01-08T11:17:38.126Z,98671.52
2023-01-08T11:20:37.858Z,98665.36
2023-01-08T11:23:20.747Z,98655.33
2023-01-08T11:26:18.872Z,98648.23
2023-01-08T11:29:00.849Z,98642.98
2023-01-08T11:31:53.215Z,98637.14
2023-01-08T11:34:54.499Z,98635.56
2023-01-08T11:37:35.824Z,98634.14
2023-01-08T11:40:16.761Z,98629.66
2023-01-08T11:43:39.708Z,98621.91
2023-01-08T11:46:24.079Z,98614.09
2023-01-08T11:49:14.732Z,98609.05
2023-01-08T11:52:04.451Z,98604.34
2023-01-08T11:54:45.121Z,98600.83
2023-01-08T11:57:57.512Z,98598.20
2023-01-08T12:00:47.048Z,98591.95
2023-01-08T12:03:54.588Z,98585.90
2023-01-08T12:07:28.699Z,98578.48
2023-01-08T12:10:41.236Z,98576.98
2023-01-08T12:14:06.749Z,98578.16
2023-01-08T12:17:29.419Z,98573.88
2023-01-08T12:20:47.460Z,98567.30
2023-01-08T12:23:48.759Z,98567.41
2023-01-08T12:30:24.840Z,98561.38
2023-01-08T12:33:28.492Z,98557.94
2023-01-08T12:36:34.512Z,98557.70
2023-01-08T12:39:17.948Z,98554.14
2023-01-08T12:42:06.590Z,98554.16
2023-01-08T12:44:50.470Z,98543.02
2023-01-08T12:47:38.670Z,98539.86
2023-01-08T12:50:52.638Z,98526.63
2023-01-08T12:53:31.010Z,98527.74
2023-01-08T12:56:37.030Z,98524.02
2023-01-08T12:59:50.213Z,98518.72
2023-01-08T13:03:08.169Z,98524.40
2023-01-08T13:06:13.451Z,98520.55
2023-01-08T13:08:59.964Z,98514.92
2023-01-08T13:11:42.353Z,98509.30
2023-01-08T13:14:19.247Z,98510.79
2023-01-08T13:17:19.010Z,98510.08
2023-01-08T13:20:21.767Z,98510.57
2023-01-08T13:22:55.772Z,98503.98
2023-01-08T13:25:39.627Z,98502.25
2023-01-08T13:28:34.668Z,98501.98
2023-01-08T13:31:36.415Z,98506.36
2023-01-08T13:34:47.816Z,98506.59
2023-01-08T13:37:27.827Z,98508.73
2023-01-08T13:41:09.084Z,98512.49
2023-01-08T13:44:27.149Z,98515.09
2023-01-08T13:47:34.176Z,98514.98
2023-01-08T13:50:30.155Z,98510.77
2023-01-08T13:53:13.926Z,98508.92
2023-01-08T13:56:14.506Z,98512.52
2023-01-08T13:59:05.438Z,98513.50
2023-01-08T14:02:12.526Z,98515.13
2023-01-08T14:04:56.175Z,98513.63
2023-01-08T14:07:30.822Z,98512.55
2023-01-08T14:10:14.662Z,98514.08
2023-01-08T14:13:13.731Z,98519.63
2023-01-08T14:15:52.356Z,98522.28
2023-01-08T14:18:37.814Z,98528.66
2023-01-08T14:21:14.245Z,98526.06
2023-01-08T14:23:49.950Z,98528.98
2023-01-08T14:26:38.204Z,98532.89
2023-01-08T14:29:41.197Z,98533.04
2023-01-08T14:32:26.906Z,98533.15
2023-01-08T14:35:10.553Z,98542.16
2023-01-08T14:37:50.934Z,98545.21
2023-01-08T14:40:32.650Z,98542.40
2023-01-08T14:43:27.666Z,98545.77
2023-01-08T14:49:35.354Z,98543.33
2023-01-08T14:52:18.139Z,98552.42
2023-01-08T14:54:59.628Z,98558.35
2023-01-08T14:57:57.168Z,98554.73
2023-01-08T15:04:07.240Z,98552.19
2023-01-08T15:06:48.969Z,98546.09
2023-01-08T15:09:35.995Z,98552.88
2023-01-08T15:12:08.921Z,98554.67
2023-01-08T15:14:43.552Z,98559.77
2023-01-08T15:17:22.303Z,98557.73
2023-01-08T15:19:59.585Z,98558.52
2023-01-08T15:22:35.147Z,98555.28
2023-01-08T15:25:15.878Z,98549.92
2023-01-08T15:28:03.949Z,98552.92
2023-01-08T15:30:45.576Z,98551.38
2023-01-08T15:33:29.070Z,98553.98
2023-01-08T15:35:58.824Z,98554.28
2023-01-08T15:38:27.375Z,98552.84
2023-01-08T15:40:55.932Z,98552.03
2023-01-08T15:43:29.316Z,98547.56
2023-01-08T15:45:58.060Z,98548.77
2023-01-08T15:48:26.545Z,98546.52
2023-01-08T15:50:58.369Z,98554.39
2023-01-08T15:53:26.935Z,98554.71
2023-01-08T15:55:55.456Z,98555.37
2023-01-08T15:58:26.022Z,98555.77
2023-01-08T16:00:57.069Z,98559.35
2023-01-08T16:03:25.942Z,98558.16
2023-01-08T16:05:54.527Z,98553.38
2023-01-08T16:08:23.294Z,98551.65
2023-01-08T16:10:53.305Z,98548.89
2023-01-08T16:13:23.009Z,98551.92
2023-01-08T16:15:51.295Z,98550.83
2023-01-08T16:18:19.855Z,98550.48
2023-01-08T16:20:48.283Z,98546.05
2023-01-08T16:23:16.809Z,98543.52
2023-01-08T16:25:50.984Z,98544.63
2023-01-08T16:28:19.434Z,98539.52
2023-01-08T16:30:47.999Z,98532.79
2023-01-08T16:33:22.296Z,98529.02
2023-01-08T16:36:05.163Z,98524.36
2023-01-08T16:38:37.207Z,98512.80
2023-01-08T16:41:09.360Z,98506.95
2023-01-08T16:43:41.865Z,98507.95
2023-01-08T16:46:16.478Z,98504.56
2023-01-08T16:48:46.827Z,98507.46
2023-01-08T16:51:15.709Z,98507.44
2023-01-08T16:53:44.108Z,98505.61
2023-01-08T16:56:12.523Z,98504.70
2023-01-08T16:58:40.923Z,98505.99
2023-01-08T17:01:11.229Z,98502.02
2023-01-08T17:03:39.985Z,98503.41
2023-01-08T17:06:12.916Z,98502.20
2023-01-08T17:08:44.303Z,98494.23
2023-01-08T17:11:16.853Z,98496.59
2023-01-08T17:13:50.760Z,98495.81
2023-01-08T17:16:28.048Z,98495.08
2023-01-08T17:18:59.112Z,98496.42
2023-01-08T17:21:27.761Z,98496.98
2023-01-08T17:23:56.174Z,98491.67
2023-01-08T17:26:24.931Z,98489.66
2023-01-08T17:28:58.803Z,98486.04
2023-01-08T17:31:27.543Z,98479.96
2023-01-08T17:33:56.292Z,98478.98
2023-01-08T17:36:29.115Z,98486.86
2023-01-08T17:39:01.278Z,98491.27
2023-01-08T17:41:53.257Z,98492.88
2023-01-08T17:44:32.755Z,98493.77
2023-01-08T17:47:04.012Z,98488.35
2023-01-08T17:49:32.503Z,98491.01
2023-01-08T17:52:02.042Z,98493.29
2023-01-08T17:54:31.706Z,98493.82
2023-01-08T17:57:00.119Z,98492.53
2023-01-08T17:59:28.521Z,98497.49
2023-01-08T18:01:58.978Z,98498.73
2023-01-08T18:04:27.824Z,98501.80
2023-01-08T18:06:56.256Z,98502.02
2023-01-08T18:09:24.563Z,98501.16
2023-01-08T18:11:52.960Z,98503.70
2023-01-08T18:14:21.382Z,98506.80
2023-01-08T18:16:51.167Z,98502.01
2023-01-08T18:19:20.231Z,98498.54
2023-01-08T18:21:48.654Z,98498.20
2023-01-08T18:24:17.037Z,98503.42
2023-01-08T18:26:46.674Z,98510.00
2023-01-08T18:29:15.099Z,98513.51
2023-01-08T18:31:45.970Z,98514.04
2023-01-08T18:34:15.417Z,98515.27
2023-01-08T18:36:43.800Z,98514.31
2023-01-08T18:39:13.282Z,98511.17
2023-01-08T18:42:00.743Z,98508.52
2023-01-08T18:44:29.132Z,98507.23
2023-01-08T18:46:58.527Z,98505.44
2023-01-08T18:49:27.724Z,98507.25
2023-01-08T18:51:56.057Z,98508.93
2023-01-08T18:54:24.531Z,98510.29
2023-01-08T18:56:52.759Z,98504.72
2023-01-08T18:59:21.176Z,98499.93
2023-01-08T19:01:49.675Z,98498.16
2023-01-08T19:04:20.851Z,98502.15
2023-01-08T19:06:49.392Z,98501.29
2023-01-08T19:09:18.580Z,98505.65
2023-01-08T19:11:47.065Z,98503.05
2023-01-08T19:14:17.561Z,98502.08
2023-01-08T19:16:51.478Z,98499.47
2023-01-08T19:19:21.525Z,98495.85
2023-01-08T19:21:50.109Z,98489.06
2023-01-08T19:24:18.505Z,98483.88
2023-01-08T19:26:46.944Z,98489.63
2023-01-08T19:29:15.315Z,98485.80
2023-01-08T19:31:44.565Z,98480.55
2023-01-08T19:34:13.166Z,98477.91
2023-01-08T19:36:43.935Z,98475.59
2023-01-08T19:39:13.450Z,98475.35
2023-01-08T19:42:01.409Z,98475.16
2023-01-08T19:44:30.904Z,98472.55
2023-01-08T19:46:59.213Z,98474.92
2023-01-08T19:49:28.182Z,98469.11
2023-01-08T19:51:56.759Z,98467.02
2023-01-08T19:54:26.087Z,98467.86
2023-01-08T19:56:58.967Z,98472.54
2023-01-08T19:59:28.395Z,98471.88
2023-01-08T20:01:57.118Z,98474.80
2023-01-08T20:04:27.010Z,98471.88
2023-01-08T20:06:58.224Z,98472.05
2023-01-08T20:09:29.468Z,98473.77
2023-01-08T20:11:59.076Z,98473.41
2023-01-08T20:14:30.530Z,98476.36
2023-01-08T20:16:58.966Z,98475.05
2023-01-08T20:19:30.835Z,98472.08
2023-01-08T20:22:01.010Z,98464.61
2023-01-08T20:24:30.376Z,98455.59
2023-01-08T20:26:58.706Z,98446.15
2023-01-08T20:29:28.460Z,98437.20
2023-01-08T20:31:59.560Z,98436.60
2023-01-08T20:34:29.646Z,98433.43
2023-01-08T20:36:58.403Z,98436.41
2023-01-08T20:39:26.729Z,98432.27
2023-01-08T20:42:01.226Z,98433.50
2023-01-08T20:44:33.501Z,98427.27
2023-01-08T20:47:02.615Z,98423.22
2023-01-08T20:49:31.454Z,98423.08
2023-01-08T20:52:00.672Z,98418.57
2023-01-08T20:54:30.313Z,98410.93
2023-01-08T20:57:00.084Z,98406.55
2023-01-08T20:59:29.157Z,98408.34
2023-01-08T21:01:58.038Z,98402.74
2023-01-08T21:04:27.160Z,98400.93
2023-01-08T21:06:55.485Z,98392.83
2023-01-08T21:09:23.844Z,98383.67
2023-01-08T21:11:52.212Z,98372.70
2023-01-08T21:14:20.481Z,98365.08
2023-01-08T21:16:50.966Z,98369.12
2023-01-08T21:19:19.502Z,98374.06
2023-01-08T21:21:47.953Z,98367.16
2023-01-08T21:24:16.459Z,98365.16
2023-01-08T21:26:45.748Z,98362.39
2023-01-08T21:29:16.966Z,98357.02
2023-01-08T21:31:46.531Z,98352.44
2023-01-08T21:34:14.892Z,98342.30
2023-01-08T21:36:46.156Z,98344.28
2023-01-08T21:39:14.519Z,98336.61
2023-01-08T21:42:01.425Z,98344.62
2023-01-08T21:44:48.733Z,98351.34
2023-01-08T21:47:18.585Z,98341.23
2023-01-08T21:49:47.065Z,98344.93
2023-01-08T21:52:34.737Z,98350.23
2023-01-08T21:55:03.266Z,98343.03
2023-01-08T21:57:38.631Z,98340.13
2023-01-08T22:00:07.795Z,98336.36
2023-01-08T22:02:37.138Z,98312.08
2023-01-08T22:05:06.774Z,98309.98
2023-01-08T22:07:35.525Z,98314.75
2023-01-08T22:10:05.574Z,98314.04
2023-01-08T22:12:34.929Z,98315.20
2023-01-08T22:15:03.602Z,98311.64
2023-01-08T22:17:31.989Z,98317.05
2023-01-08T22:20:01.966Z,98315.99
2023-01-08T22:22:30.348Z,98308.97
2023-01-08T22:24:58.708Z,98302.44
2023-01-08T22:27:27.065Z,98304.39
2023-01-08T22:29:55.450Z,98308.45
2023-01-08T22:32:23.795Z,98309.63
2023-01-08T22:34:52.247Z,98315.52
2023-01-08T22:37:22.051Z,98307.86
2023-01-08T22:39:50.507Z,98289.70
2023-01-08T22:42:18.859Z,98282.40
2023-01-08T22:44:49.386Z,98267.02
2023-01-08T22:47:17.720Z,98259.37
2023-01-08T22:49:48.385Z,98251.30
2023-01-08T22:52:17.081Z,98253.83
2023-01-08T22:54:45.604Z,98251.22
2023-01-08T22:57:13.870Z,98256.20
2023-01-08T22:59:42.203Z,98259.18
2023-01-08T23:02:10.579Z,98264.39
2023-01-08T23:04:38.841Z,98268.45
2023-01-08T23:07:07.396Z,98259.88
2023-01-08T23:09:35.699Z,98254.20
2023-01-08T23:12:04.155Z,98250.45
2023-01-08T23:14:32.547Z,98245.40
2023-01-08T23:17:00.854Z,98240.52
2023-01-08T23:19:29.143Z,98237.98
2023-01-08T23:21:57.583Z,98236.84
2023-01-08T23:24:27.888Z,98225.33
2023-01-08T23:26:56.803Z,98217.83
2023-01-08T23:29:29.624Z,98209.31
2023-01-08T23:31:58.206Z,98202.45
2023-01-08T23:34:26.647Z,98199.91
2023-01-08T23:36:54.971Z,98200.61
2023-01-08T23:39:26.747Z,98193.08
2023-01-08T23:41:56.200Z,98189.77
2023-01-08T23:44:24.508Z,98194.97
2023-01-08T23:46:52.859Z,98189.02
2023-01-08T23:49:21.623Z,98184.98
2023-01-08T23:51:49.858Z,98184.05
2023-01-08T23:54:19.591Z,98182.11
2023-01-08T23:56:48.946Z,98179.38
2023-01-08T23:59:17.280Z,98175.10
